Time;durP1;ratioP1;P1;durP2;ratioP2;P2;SDS_P1;SDS_P2;PMS_P1;PMS_P2;Temp;Humidity;BMP_temperature;BMP_pressure;BME280_temperature;BME280_humidity;BME280_pressure;Samples;Min_cycle;Max_cycle;Signal;HPM_P1;HPM_P2
2022/09/04 00:00:10;;;;;;;;;;;16.10;99.90;;;;;;5046082;28;19945;-76
2022/09/04 00:03:16;;;;;;;;;;;16.10;99.90;;;;;;5044905;28;19917;-76
2022/09/04 00:05:47;;;;;;;;;;;16.10;99.90;;;;;;5018168;28;19922;-76
2022/09/04 00:08:34;;;;;;;;;;;16.10;99.90;;;;;;5045940;28;19909;-76
2022/09/04 00:11:07;;;;;;;;;;;16.10;99.90;;;;;;5044476;28;19929;-76
2022/09/04 00:13:35;;;;;;;;;;;16.10;99.90;;;;;;5045686;28;19976;-76
2022/09/04 00:16:00;;;;;;;;;;;16.10;99.90;;;;;;5044688;28;19909;-76
2022/09/04 00:18:36;;;;;;;;;;;16.10;99.90;;;;;;5045704;28;20129;-76
2022/09/04 00:21:26;;;;;;;;;;;16.10;99.90;;;;;;5044500;28;19917;-76
2022/09/04 00:24:07;;;;;;;;;;;16.10;99.90;;;;;;5029713;28;19953;-76
2022/09/04 00:26:49;;;;;;;;;;;16.00;99.90;;;;;;5048802;28;19956;-76
2022/09/04 00:29:23;;;;;;;;;;;16.00;99.90;;;;;;5065494;28;19936;-76
2022/09/04 00:31:57;;;;;;;;;;;15.90;99.90;;;;;;5031711;28;19909;-76
2022/09/04 00:34:37;;;;;;;;;;;15.80;99.90;;;;;;5031783;28;19915;-76
2022/09/04 00:37:04;;;;;;;;;;;15.80;99.90;;;;;;5048739;28;19909;-76
2022/09/04 00:39:35;;;;;;;;;;;15.80;99.90;;;;;;5047704;28;19908;-76
2022/09/04 00:42:24;;;;;;;;;;;15.80;99.90;;;;;;5063932;28;20108;-76
2022/09/04 00:44:52;;;;;;;;;;;15.70;99.90;;;;;;5043033;28;19915;-76
2022/09/04 00:47:41;;;;;;;;;;;15.70;99.90;;;;;;5047267;28;19956;-76
2022/09/04 00:50:35;;;;;;;;;;;15.70;99.90;;;;;;5063181;28;19963;-76
2022/09/04 00:53:25;;;;;;;;;;;15.70;99.90;;;;;;5063920;28;19955;-76
2022/09/04 00:56:10;;;;;;;;;;;15.60;99.90;;;;;;5044404;28;19917;-76
2022/09/04 00:58:54;;;;;;;;;;;15.60;99.90;;;;;;5044861;28;19909;-76
2022/09/04 01:01:24;;;;;;;;;;;15.50;99.90;;;;;;5045038;28;19909;-76
2022/09/04 01:03:50;;;;;;;;;;;15.50;99.90;;;;;;5043490;28;19909;-75
2022/09/04 01:06:17;;;;;;;;;;;15.40;99.90;;;;;;5043659;28;20232;-75
2022/09/04 01:09:11;;;;;;;;;;;15.30;99.90;;;;;;5043803;28;19909;-76
2022/09/04 01:12:02;;;;;;;;;;;15.30;99.90;;;;;;5043719;28;19949;-75
2022/09/04 01:14:51;;;;;;;;;;;15.30;99.90;;;;;;5027277;28;19913;-76
2022/09/04 01:17:24;;;;;;;;;;;15.20;99.90;;;;;;5043575;28;19956;-76
2022/09/04 01:20:06;;;;;;;;;;;15.20;99.90;;;;;;5043605;28;19909;-75
2022/09/04 01:23:01;;;;;;;;;;;15.20;99.90;;;;;;5043611;28;20212;-76
2022/09/04 01:25:55;;;;;;;;;;;15.20;99.90;;;;;;5043676;28;20248;-75
2022/09/04 01:28:24;;;;;;;;;;;15.20;99.90;;;;;;5044315;28;19913;-75
2022/09/04 01:31:07;;;;;;;;;;;15.20;99.90;;;;;;5045037;28;19913;-75
2022/09/04 01:34:10;;;;;;;;;;;15.20;99.90;;;;;;5044685;28;20200;-75
2022/09/04 01:36:42;;;;;;;;;;;15.30;99.90;;;;;;5047235;28;19970;-75
2022/09/04 01:39:08;;;;;;;;;;;15.20;99.90;;;;;;5064378;28;19913;-75
2022/09/04 01:41:53;;;;;;;;;;;15.20;99.90;;;;;;5063978;28;20164;-76
2022/09/04 01:44:19;;;;;;;;;;;15.20;99.90;;;;;;5043385;28;19955;-75
2022/09/04 01:47:17;;;;;;;;;;;15.10;99.90;;;;;;5063087;28;19916;-75
2022/09/04 01:49:56;;;;;;;;;;;15.20;99.90;;;;;;5063274;28;19915;-76
2022/09/04 01:52:37;;;;;;;;;;;15.20;99.90;;;;;;5046860;28;19909;-75
2022/09/04 01:55:22;;;;;;;;;;;15.20;99.90;;;;;;5062596;28;19909;-76
2022/09/04 01:58:16;;;;;;;;;;;15.20;99.90;;;;;;5041660;28;19917;-75
2022/09/04 02:01:05;;;;;;;;;;;15.20;99.90;;;;;;5043850;28;19915;-75
2022/09/04 02:03:47;;;;;;;;;;;15.20;99.90;;;;;;5028101;28;20205;-75
2022/09/04 02:06:51;;;;;;;;;;;15.20;99.90;;;;;;5042639;28;19968;-75
2022/09/04 02:09:40;;;;;;;;;;;15.10;99.90;;;;;;5043087;28;19947;-75
2022/09/04 02:12:31;;;;;;;;;;;15.10;99.90;;;;;;5024187;28;19917;-76
2022/09/04 02:15:32;;;;;;;;;;;15.10;99.90;;;;;;5042297;28;19912;-76
2022/09/04 02:18:01;;;;;;;;;;;15.00;99.90;;;;;;5031501;28;19996;-75
2022/09/04 02:20:30;;;;;;;;;;;15.00;99.90;;;;;;5058865;28;19915;-76
2022/09/04 02:23:34;;;;;;;;;;;15.10;99.90;;;;;;5042137;28;19952;-76
2022/09/04 02:26:28;;;;;;;;;;;15.10;99.90;;;;;;5045597;28;19917;-76
2022/09/04 02:29:13;;;;;;;;;;;15.00;99.90;;;;;;5074459;28;19908;-76
2022/09/04 02:31:52;;;;;;;;;;;15.00;99.90;;;;;;5062100;28;19912;-75
2022/09/04 02:34:21;;;;;;;;;;;15.00;99.90;;;;;;5046409;28;20211;-75
2022/09/04 02:37:01;;;;;;;;;;;15.00;99.90;;;;;;5063040;28;19954;-75
2022/09/04 02:39:46;;;;;;;;;;;15.00;99.90;;;;;;5062060;28;19916;-75
2022/09/04 02:42:25;;;;;;;;;;;15.00;99.90;;;;;;5045406;28;19916;-76
2022/09/04 02:45:16;;;;;;;;;;;15.00;99.90;;;;;;5061578;28;19938;-76
2022/09/04 02:48:00;;;;;;;;;;;15.00;99.90;;;;;;5061944;28;19912;-77
2022/09/04 02:50:38;;;;;;;;;;;15.00;99.90;;;;;;5047349;28;19936;-76
2022/09/04 02:53:23;;;;;;;;;;;14.90;99.90;;;;;;5045189;28;20366;-76
2022/09/04 02:56:00;;;;;;;;;;;15.00;99.90;;;;;;5046350;28;19912;-76
2022/09/04 02:58:54;;;;;;;;;;;15.00;99.90;;;;;;5045752;28;19923;-76
2022/09/04 03:01:31;;;;;;;;;;;14.90;99.90;;;;;;5061489;28;20204;-76
2022/09/04 03:04:12;;;;;;;;;;;15.00;99.90;;;;;;5045172;28;19909;-76
2022/09/04 03:06:50;;;;;;;;;;;14.90;99.90;;;;;;5061325;28;19912;-76
2022/09/04 03:09:22;;;;;;;;;;;14.90;99.90;;;;;;5062639;28;19917;-76
2022/09/04 03:11:51;;;;;;;;;;;14.80;99.90;;;;;;5064847;28;19909;-76
2022/09/04 03:14:46;;;;;;;;;;;14.90;99.90;;;;;;5044508;28;19915;-77
2022/09/04 03:17:16;;;;;;;;;;;14.80;99.90;;;;;;5061545;28;19951;-77
2022/09/04 03:19:55;;;;;;;;;;;14.80;99.90;;;;;;5045002;28;20100;-77
2022/09/04 03:22:32;;;;;;;;;;;14.80;99.90;;;;;;5046232;28;19950;-77
2022/09/04 03:25:01;;;;;;;;;;;14.80;99.90;;;;;;5045048;28;20085;-77
2022/09/04 03:27:26;;;;;;;;;;;14.80;99.90;;;;;;5062017;28;19913;-77
2022/09/04 03:30:00;;;;;;;;;;;14.70;99.90;;;;;;5061325;28;19931;-76
2022/09/04 03:32:46;;;;;;;;;;;14.70;99.90;;;;;;5045468;28;19936;-76
2022/09/04 03:35:21;;;;;;;;;;;14.70;99.90;;;;;;5061463;28;19909;-77
2022/09/04 03:37:58;;;;;;;;;;;14.70;99.90;;;;;;5062342;28;19912;-76
2022/09/04 03:40:37;;;;;;;;;;;14.70;99.90;;;;;;5061426;28;19916;-76
2022/09/04 03:43:18;;;;;;;;;;;14.60;99.90;;;;;;5044055;28;19908;-76
2022/09/04 03:45:53;;;;;;;;;;;14.60;99.90;;;;;;5062136;28;19916;-75
2022/09/04 03:48:28;;;;;;;;;;;14.60;99.90;;;;;;5060647;28;19912;-77
2022/09/04 03:50:57;;;;;;;;;;;14.50;99.90;;;;;;5062098;28;19932;-76
2022/09/04 03:53:55;;;;;;;;;;;14.50;99.90;;;;;;5061735;28;20204;-75
2022/09/04 03:56:26;;;;;;;;;;;14.50;99.90;;;;;;5060113;28;19971;-75
2022/09/04 03:59:21;;;;;;;;;;;14.50;99.90;;;;;;5062120;28;19908;-76
2022/09/04 04:01:59;;;;;;;;;;;14.50;99.90;;;;;;5061155;28;19916;-76
2022/09/04 04:04:51;;;;;;;;;;;14.50;99.90;;;;;;5044012;28;19916;-77
2022/09/04 04:07:35;;;;;;;;;;;14.40;99.90;;;;;;5044254;28;19917;-77
2022/09/04 04:10:18;;;;;;;;;;;14.40;99.90;;;;;;5060709;28;19924;-77
2022/09/04 04:12:55;;;;;;;;;;;14.40;99.90;;;;;;5044635;28;20263;-77
2022/09/04 04:15:40;;;;;;;;;;;14.30;99.90;;;;;;5061970;28;19954;-77
2022/09/04 04:18:18;;;;;;;;;;;14.30;99.90;;;;;;5060855;28;19908;-77
2022/09/04 04:21:13;;;;;;;;;;;14.30;99.90;;;;;;5061875;28;19916;-77
2022/09/04 04:24:20;;;;;;;;;;;14.30;99.90;;;;;;5060697;28;20255;-76
2022/09/04 04:27:13;;;;;;;;;;;14.30;99.90;;;;;;5042780;28;19921;-76
2022/09/04 04:29:45;;;;;;;;;;;14.30;99.90;;;;;;5043619;28;19909;-76
2022/09/04 04:32:12;;;;;;;;;;;14.20;99.90;;;;;;5066909;28;19937;-75
2022/09/04 04:34:49;;;;;;;;;;;14.30;99.90;;;;;;5044757;28;20012;-75
2022/09/04 04:37:25;;;;;;;;;;;14.30;99.90;;;;;;5045164;28;19924;-74
2022/09/04 04:40:09;;;;;;;;;;;14.30;99.90;;;;;;5054834;28;19924;-74
2022/09/04 04:42:58;;;;;;;;;;;14.20;99.90;;;;;;5048092;28;19995;-74
2022/09/04 04:48:39;;;;;;;;;;;14.30;99.90;;;;;;5050503;28;19955;-74
2022/09/04 04:51:17;;;;;;;;;;;14.20;99.90;;;;;;5049902;28;19909;-74
2022/09/04 04:54:12;;;;;;;;;;;14.20;99.90;;;;;;5063954;28;19908;-74
2022/09/04 04:56:58;;;;;;;;;;;14.20;99.90;;;;;;5063661;28;20081;-75
2022/09/04 04:59:47;;;;;;;;;;;14.20;99.90;;;;;;5047566;28;19971;-74
2022/09/04 05:02:29;;;;;;;;;;;14.20;99.90;;;;;;5047445;28;19915;-74
2022/09/04 05:05:06;;;;;;;;;;;14.20;99.90;;;;;;5063507;28;19916;-74
2022/09/04 05:07:47;;;;;;;;;;;14.20;99.90;;;;;;5063721;28;19959;-74
2022/09/04 05:10:24;;;;;;;;;;;14.20;99.90;;;;;;5063751;28;20143;-74
2022/09/04 05:13:08;;;;;;;;;;;14.10;99.90;;;;;;5030528;28;19947;-74
2022/09/04 05:15:34;;;;;;;;;;;14.10;99.90;;;;;;5063615;28;19909;-75
2022/09/04 05:18:08;;;;;;;;;;;14.10;99.90;;;;;;5063715;28;19908;-76
2022/09/04 05:20:41;;;;;;;;;;;14.10;99.90;;;;;;5047366;28;19912;-78
2022/09/04 05:23:35;;;;;;;;;;;14.20;99.90;;;;;;5046778;28;19909;-75
2022/09/04 05:26:15;;;;;;;;;;;14.30;99.90;;;;;;5064289;28;19959;-77
2022/09/04 05:28:47;;;;;;;;;;;14.40;99.90;;;;;;5063430;28;19944;-77
2022/09/04 05:31:18;;;;;;;;;;;14.40;99.90;;;;;;5046704;28;19931;-78
2022/09/04 05:33:54;;;;;;;;;;;14.50;99.90;;;;;;5063059;28;20195;-79
2022/09/04 05:36:57;;;;;;;;;;;14.50;99.90;;;;;;5063994;28;19932;-78
2022/09/04 05:39:41;;;;;;;;;;;14.60;99.90;;;;;;5064284;28;19920;-78
2022/09/04 05:42:40;;;;;;;;;;;14.70;99.90;;;;;;5064065;28;20146;-78
2022/09/04 05:45:44;;;;;;;;;;;14.80;99.90;;;;;;5046232;28;20220;-78
2022/09/04 05:48:35;;;;;;;;;;;14.80;99.90;;;;;;4963953;29;20369;-78
2022/09/04 05:51:38;;;;;;;;;;;14.90;99.90;;;;;;5060156;28;19983;-78
2022/09/04 05:54:17;;;;;;;;;;;14.90;99.90;;;;;;5056999;28;19958;-78
2022/09/04 05:57:10;;;;;;;;;;;14.90;99.90;;;;;;5049573;28;19917;-78
2022/09/04 05:59:46;;;;;;;;;;;14.80;99.90;;;;;;5043586;28;19940;-78
2022/09/04 06:02:33;;;;;;;;;;;14.90;99.90;;;;;;5042880;28;19976;-78
2022/09/04 06:05:09;;;;;;;;;;;14.90;99.90;;;;;;5043742;28;19916;-79
2022/09/04 06:08:00;;;;;;;;;;;14.90;99.90;;;;;;5042634;28;19913;-78
2022/09/04 06:10:30;;;;;;;;;;;14.90;99.90;;;;;;5037894;28;19913;-78
2022/09/04 06:13:27;;;;;;;;;;;15.00;99.90;;;;;;5042162;28;19959;-78
2022/09/04 06:16:02;;;;;;;;;;;15.00;99.90;;;;;;5042530;28;19909;-78
2022/09/04 06:19:06;;;;;;;;;;;15.10;99.90;;;;;;5059783;28;19976;-78
2022/09/04 06:21:47;;;;;;;;;;;15.20;99.90;;;;;;5028103;28;19913;-78
2022/09/04 06:24:34;;;;;;;;;;;15.30;99.90;;;;;;5042485;28;19990;-79
2022/09/04 06:27:15;;;;;;;;;;;15.30;99.90;;;;;;5042216;28;19939;-79
2022/09/04 06:29:48;;;;;;;;;;;15.40;99.90;;;;;;5042324;28;19952;-79
2022/09/04 06:32:29;;;;;;;;;;;15.40;99.90;;;;;;5058302;28;19967;-79
2022/09/04 06:34:55;;;;;;;;;;;15.40;99.90;;;;;;5057457;28;19913;-79
2022/09/04 06:37:52;;;;;;;;;;;15.50;99.90;;;;;;5057772;28;19927;-78
2022/09/04 06:40:39;;;;;;;;;;;15.50;99.90;;;;;;5059397;28;19920;-81
2022/09/04 06:43:14;;;;;;;;;;;15.50;99.90;;;;;;5062721;28;20148;-78
2022/09/04 06:45:52;;;;;;;;;;;15.60;99.90;;;;;;5063539;28;19949;-77
2022/09/04 06:48:52;;;;;;;;;;;15.60;99.90;;;;;;5060672;28;19913;-76
2022/09/04 06:51:33;;;;;;;;;;;15.60;99.90;;;;;;5061752;28;19944;-76
2022/09/04 06:54:13;;;;;;;;;;;15.70;99.90;;;;;;5062329;28;19917;-76
2022/09/04 06:56:58;;;;;;;;;;;15.70;99.90;;;;;;5062318;28;19913;-76
2022/09/04 06:59:36;;;;;;;;;;;15.70;99.90;;;;;;5043042;28;19916;-76
2022/09/04 07:02:06;;;;;;;;;;;15.80;99.90;;;;;;5060899;28;19980;-75
2022/09/04 07:04:50;;;;;;;;;;;15.80;99.90;;;;;;5057463;28;19920;-75
2022/09/04 07:07:46;;;;;;;;;;;15.90;99.90;;;;;;5061305;28;19928;-75
2022/09/04 07:10:16;;;;;;;;;;;15.90;99.90;;;;;;5043308;28;22586;-75
2022/09/04 07:13:03;;;;;;;;;;;16.00;99.90;;;;;;5025151;28;19936;-75
2022/09/04 07:15:31;;;;;;;;;;;16.10;99.90;;;;;;5055293;28;20111;-75
2022/09/04 07:18:11;;;;;;;;;;;16.10;99.90;;;;;;5062385;28;19979;-75
2022/09/04 07:20:59;;;;;;;;;;;16.20;99.90;;;;;;5061399;28;19908;-75
2022/09/04 07:24:01;;;;;;;;;;;16.30;99.90;;;;;;5062419;28;19908;-75
2022/09/04 07:26:36;;;;;;;;;;;16.40;99.90;;;;;;5016442;28;19927;-75
2022/09/04 07:29:24;;;;;;;;;;;16.40;99.90;;;;;;5061125;28;20277;-75
2022/09/04 07:32:04;;;;;;;;;;;16.50;99.90;;;;;;5057754;28;19913;-76
2022/09/04 07:35:09;;;;;;;;;;;16.50;99.90;;;;;;5059265;28;19992;-76
2022/09/04 07:37:57;;;;;;;;;;;16.50;99.90;;;;;;5046044;28;20026;-76
2022/09/04 07:40:38;;;;;;;;;;;16.60;99.90;;;;;;5056423;28;19972;-76
2022/09/04 07:43:04;;;;;;;;;;;16.70;99.90;;;;;;5074389;28;19920;-76
2022/09/04 07:45:47;;;;;;;;;;;16.80;99.90;;;;;;5060585;28;19920;-76
2022/09/04 07:48:31;;;;;;;;;;;16.80;99.90;;;;;;5045128;28;19912;-75
2022/09/04 07:51:03;;;;;;;;;;;16.90;99.90;;;;;;5045711;28;20089;-76
2022/09/04 07:54:07;;;;;;;;;;;17.00;99.90;;;;;;5061614;28;19913;-75
2022/09/04 07:56:57;;;;;;;;;;;17.10;99.90;;;;;;5061118;28;19980;-75
2022/09/04 07:59:32;;;;;;;;;;;17.20;99.90;;;;;;5059932;28;19916;-74
2022/09/04 08:02:33;;;;;;;;;;;17.40;99.90;;;;;;5065938;28;19962;-79
2022/09/04 08:05:14;;;;;;;;;;;17.60;99.90;;;;;;5042150;28;20093;-73
2022/09/04 08:07:39;;;;;;;;;;;17.70;99.90;;;;;;5065663;28;19950;-73
2022/09/04 08:10:11;;;;;;;;;;;17.90;99.90;;;;;;5056416;28;19948;-73
2022/09/04 08:12:49;;;;;;;;;;;18.00;99.90;;;;;;5063776;28;19913;-73
2022/09/04 08:15:41;;;;;;;;;;;18.10;99.90;;;;;;5064786;28;19956;-73
2022/09/04 08:18:33;;;;;;;;;;;18.10;99.90;;;;;;5064387;28;19913;-73
2022/09/04 08:21:18;;;;;;;;;;;18.20;99.90;;;;;;5054996;28;19916;-73
2022/09/04 08:23:57;;;;;;;;;;;18.20;99.90;;;;;;5064521;28;19927;-73
2022/09/04 08:26:32;;;;;;;;;;;18.30;99.90;;;;;;5056571;28;19913;-73
2022/09/04 08:29:28;;;;;;;;;;;18.30;99.90;;;;;;5064632;28;19917;-73
2022/09/04 08:32:20;;;;;;;;;;;18.40;99.90;;;;;;5060054;28;20051;-74
2022/09/04 08:34:51;;;;;;;;;;;18.30;99.90;;;;;;5062303;28;19920;-73
